sensor_id;sensor_type;location;lat;lon;timestamp;P1;durP1;ratioP1;P2;durP2;ratioP2
6344;SDS011;3205;42.666;23.264;2022-10-24T00:02:02;12.70;;;8.57;;
6344;SDS011;3205;42.666;23.264;2022-10-24T00:04:29;17.60;;;9.20;;
6344;SDS011;3205;42.666;23.264;2022-10-24T00:06:56;12.90;;;8.20;;
6344;SDS011;3205;42.666;23.264;2022-10-24T00:09:23;15.43;;;7.90;;
6344;SDS011;3205;42.666;23.264;2022-10-24T00:11:50;14.00;;;8.87;;
6344;SDS011;3205;42.666;23.264;2022-10-24T00:14:17;15.20;;;8.20;;
6344;SDS011;3205;42.666;23.264;2022-10-24T00:16:43;15.77;;;8.37;;
6344;SDS011;3205;42.666;23.264;2022-10-24T00:19:12;14.67;;;7.90;;
6344;SDS011;3205;42.666;23.264;2022-10-24T00:21:38;14.53;;;8.23;;
6344;SDS011;3205;42.666;23.264;2022-10-24T00:24:06;14.73;;;7.90;;
6344;SDS011;3205;42.666;23.264;2022-10-24T00:26:33;13.07;;;8.13;;
6344;SDS011;3205;42.666;23.264;2022-10-24T00:29:00;16.43;;;8.17;;
6344;SDS011;3205;42.666;23.264;2022-10-24T00:31:27;10.97;;;7.50;;
6344;SDS011;3205;42.666;23.264;2022-10-24T00:33:54;9.80;;;7.07;;
6344;SDS011;3205;42.666;23.264;2022-10-24T00:36:23;11.93;;;7.03;;
6344;SDS011;3205;42.666;23.264;2022-10-24T00:38:51;14.07;;;7.57;;
6344;SDS011;3205;42.666;23.264;2022-10-24T00:41:19;14.67;;;7.73;;
6344;SDS011;3205;42.666;23.264;2022-10-24T00:43:50;14.77;;;7.03;;
6344;SDS011;3205;42.666;23.264;2022-10-24T00:46:37;10.40;;;6.80;;
6344;SDS011;3205;42.666;23.264;2022-10-24T00:49:04;10.30;;;6.87;;
6344;SDS011;3205;42.666;23.264;2022-10-24T00:51:39;10.83;;;7.00;;
6344;SDS011;3205;42.666;23.264;2022-10-24T00:54:07;10.87;;;7.47;;
6344;SDS011;3205;42.666;23.264;2022-10-24T00:56:36;13.13;;;7.83;;
6344;SDS011;3205;42.666;23.264;2022-10-24T00:59:07;12.60;;;7.30;;
6344;SDS011;3205;42.666;23.264;2022-10-24T01:01:35;11.93;;;6.47;;
6344;SDS011;3205;42.666;23.264;2022-10-24T01:04:03;12.37;;;6.77;;
6344;SDS011;3205;42.666;23.264;2022-10-24T01:06:36;10.03;;;6.23;;
6344;SDS011;3205;42.666;23.264;2022-10-24T01:09:14;11.77;;;6.87;;
6344;SDS011;3205;42.666;23.264;2022-10-24T01:11:56;10.70;;;6.97;;
6344;SDS011;3205;42.666;23.264;2022-10-24T01:14:33;13.73;;;6.63;;
6344;SDS011;3205;42.666;23.264;2022-10-24T01:17:14;11.70;;;7.17;;
6344;SDS011;3205;42.666;23.264;2022-10-24T01:20:02;13.67;;;7.43;;
6344;SDS011;3205;42.666;23.264;2022-10-24T01:22:46;12.27;;;7.13;;
6344;SDS011;3205;42.666;23.264;2022-10-24T01:25:28;13.67;;;7.23;;
6344;SDS011;3205;42.666;23.264;2022-10-24T01:28:05;15.77;;;8.97;;
6344;SDS011;3205;42.666;23.264;2022-10-24T01:30:37;12.27;;;7.07;;
6344;SDS011;3205;42.666;23.264;2022-10-24T01:33:12;16.97;;;9.83;;
6344;SDS011;3205;42.666;23.264;2022-10-24T01:35:46;14.50;;;8.57;;
6344;SDS011;3205;42.666;23.264;2022-10-24T01:38:18;16.03;;;8.43;;
6344;SDS011;3205;42.666;23.264;2022-10-24T01:40:51;17.67;;;8.60;;
6344;SDS011;3205;42.666;23.264;2022-10-24T01:43:22;13.17;;;8.20;;
6344;SDS011;3205;42.666;23.264;2022-10-24T01:45:54;17.53;;;9.03;;
6344;SDS011;3205;42.666;23.264;2022-10-24T01:48:25;14.33;;;8.77;;
6344;SDS011;3205;42.666;23.264;2022-10-24T01:50:58;13.87;;;7.90;;
6344;SDS011;3205;42.666;23.264;2022-10-24T01:53:28;13.57;;;7.80;;
6344;SDS011;3205;42.666;23.264;2022-10-24T01:55:56;9.80;;;7.03;;
6344;SDS011;3205;42.666;23.264;2022-10-24T01:58:24;14.30;;;7.57;;
6344;SDS011;3205;42.666;23.264;2022-10-24T02:00:52;14.00;;;7.37;;
6344;SDS011;3205;42.666;23.264;2022-10-24T02:03:26;12.67;;;7.80;;
6344;SDS011;3205;42.666;23.264;2022-10-24T02:05:58;16.23;;;7.57;;
6344;SDS011;3205;42.666;23.264;2022-10-24T02:08:33;11.70;;;7.40;;
6344;SDS011;3205;42.666;23.264;2022-10-24T02:11:04;16.73;;;7.17;;
6344;SDS011;3205;42.666;23.264;2022-10-24T02:13:33;12.77;;;7.23;;
6344;SDS011;3205;42.666;23.264;2022-10-24T02:16:07;12.13;;;7.13;;
6344;SDS011;3205;42.666;23.264;2022-10-24T02:18:35;16.70;;;7.60;;
6344;SDS011;3205;42.666;23.264;2022-10-24T02:21:05;14.63;;;7.40;;
6344;SDS011;3205;42.666;23.264;2022-10-24T02:23:41;10.93;;;6.97;;
6344;SDS011;3205;42.666;23.264;2022-10-24T02:26:19;12.33;;;7.53;;
6344;SDS011;3205;42.666;23.264;2022-10-24T02:28:51;16.63;;;8.80;;
6344;SDS011;3205;42.666;23.264;2022-10-24T02:31:21;15.17;;;7.63;;
6344;SDS011;3205;42.666;23.264;2022-10-24T02:33:50;11.40;;;7.57;;
6344;SDS011;3205;42.666;23.264;2022-10-24T02:36:20;11.50;;;7.03;;
6344;SDS011;3205;42.666;23.264;2022-10-24T02:38:51;13.37;;;7.93;;
6344;SDS011;3205;42.666;23.264;2022-10-24T02:41:21;13.77;;;7.33;;
6344;SDS011;3205;42.666;23.264;2022-10-24T02:43:52;14.10;;;8.03;;
6344;SDS011;3205;42.666;23.264;2022-10-24T02:46:22;16.10;;;8.30;;
6344;SDS011;3205;42.666;23.264;2022-10-24T02:48:52;18.63;;;7.73;;
6344;SDS011;3205;42.666;23.264;2022-10-24T02:51:23;16.60;;;8.53;;
6344;SDS011;3205;42.666;23.264;2022-10-24T02:53:53;19.90;;;8.17;;
6344;SDS011;3205;42.666;23.264;2022-10-24T02:56:20;19.23;;;8.57;;
6344;SDS011;3205;42.666;23.264;2022-10-24T02:58:47;19.73;;;8.40;;
6344;SDS011;3205;42.666;23.264;2022-10-24T03:01:14;17.57;;;8.13;;
6344;SDS011;3205;42.666;23.264;2022-10-24T03:03:42;13.63;;;8.17;;
6344;SDS011;3205;42.666;23.264;2022-10-24T03:06:09;14.27;;;8.10;;
6344;SDS011;3205;42.666;23.264;2022-10-24T03:08:36;19.70;;;7.73;;
6344;SDS011;3205;42.666;23.264;2022-10-24T03:11:02;18.10;;;8.47;;
6344;SDS011;3205;42.666;23.264;2022-10-24T03:13:30;15.90;;;7.27;;
6344;SDS011;3205;42.666;23.264;2022-10-24T03:15:57;23.87;;;8.50;;
6344;SDS011;3205;42.666;23.264;2022-10-24T03:18:24;18.57;;;7.80;;
6344;SDS011;3205;42.666;23.264;2022-10-24T03:20:52;14.73;;;7.83;;
6344;SDS011;3205;42.666;23.264;2022-10-24T03:23:18;21.10;;;8.30;;
6344;SDS011;3205;42.666;23.264;2022-10-24T03:25:46;21.17;;;7.83;;
6344;SDS011;3205;42.666;23.264;2022-10-24T03:28:13;16.00;;;7.80;;
6344;SDS011;3205;42.666;23.264;2022-10-24T03:30:39;16.93;;;7.90;;
6344;SDS011;3205;42.666;23.264;2022-10-24T03:33:06;13.17;;;7.73;;
6344;SDS011;3205;42.666;23.264;2022-10-24T03:35:33;23.13;;;8.17;;
6344;SDS011;3205;42.666;23.264;2022-10-24T03:38:02;20.87;;;8.00;;
6344;SDS011;3205;42.666;23.264;2022-10-24T03:40:32;17.43;;;8.20;;
6344;SDS011;3205;42.666;23.264;2022-10-24T03:42:59;15.27;;;7.70;;
6344;SDS011;3205;42.666;23.264;2022-10-24T03:45:26;14.20;;;7.83;;
6344;SDS011;3205;42.666;23.264;2022-10-24T03:47:52;19.80;;;8.87;;
6344;SDS011;3205;42.666;23.264;2022-10-24T03:50:19;17.23;;;8.47;;
6344;SDS011;3205;42.666;23.264;2022-10-24T03:52:46;18.97;;;8.20;;
6344;SDS011;3205;42.666;23.264;2022-10-24T03:55:14;17.67;;;8.33;;
6344;SDS011;3205;42.666;23.264;2022-10-24T03:57:41;16.17;;;7.63;;
6344;SDS011;3205;42.666;23.264;2022-10-24T04:00:09;27.80;;;10.93;;
6344;SDS011;3205;42.666;23.264;2022-10-24T04:02:36;19.03;;;10.13;;
6344;SDS011;3205;42.666;23.264;2022-10-24T04:05:03;26.57;;;10.13;;
6344;SDS011;3205;42.666;23.264;2022-10-24T04:07:30;16.57;;;8.77;;
6344;SDS011;3205;42.666;23.264;2022-10-24T04:09:57;20.93;;;9.33;;
6344;SDS011;3205;42.666;23.264;2022-10-24T04:12:25;19.90;;;9.43;;
6344;SDS011;3205;42.666;23.264;2022-10-24T04:14:52;18.53;;;9.33;;
6344;SDS011;3205;42.666;23.264;2022-10-24T04:17:19;22.17;;;8.63;;
6344;SDS011;3205;42.666;23.264;2022-10-24T04:19:45;16.87;;;9.33;;
6344;SDS011;3205;42.666;23.264;2022-10-24T04:22:12;17.07;;;8.93;;
6344;SDS011;3205;42.666;23.264;2022-10-24T04:24:39;14.87;;;9.37;;
6344;SDS011;3205;42.666;23.264;2022-10-24T04:27:06;16.47;;;8.60;;
6344;SDS011;3205;42.666;23.264;2022-10-24T04:29:34;15.60;;;9.20;;
6344;SDS011;3205;42.666;23.264;2022-10-24T04:32:01;28.17;;;9.53;;
6344;SDS011;3205;42.666;23.264;2022-10-24T04:34:28;22.03;;;9.67;;
6344;SDS011;3205;42.666;23.264;2022-10-24T04:36:55;20.97;;;10.30;;
6344;SDS011;3205;42.666;23.264;2022-10-24T04:39:22;24.20;;;10.30;;
6344;SDS011;3205;42.666;23.264;2022-10-24T04:41:49;33.87;;;10.73;;
6344;SDS011;3205;42.666;23.264;2022-10-24T04:44:17;26.60;;;10.27;;
6344;SDS011;3205;42.666;23.264;2022-10-24T04:46:45;20.10;;;10.67;;
6344;SDS011;3205;42.666;23.264;2022-10-24T04:49:11;29.93;;;10.90;;
6344;SDS011;3205;42.666;23.264;2022-10-24T04:51:38;25.20;;;10.83;;
6344;SDS011;3205;42.666;23.264;2022-10-24T04:54:05;33.03;;;11.40;;
6344;SDS011;3205;42.666;23.264;2022-10-24T04:56:32;22.80;;;10.70;;
6344;SDS011;3205;42.666;23.264;2022-10-24T04:59:00;28.03;;;11.33;;
6344;SDS011;3205;42.666;23.264;2022-10-24T05:01:27;21.83;;;11.50;;
6344;SDS011;3205;42.666;23.264;2022-10-24T05:03:55;38.27;;;12.07;;
6344;SDS011;3205;42.666;23.264;2022-10-24T05:06:22;27.70;;;12.20;;
6344;SDS011;3205;42.666;23.264;2022-10-24T05:08:49;28.17;;;11.23;;
6344;SDS011;3205;42.666;23.264;2022-10-24T05:11:15;38.70;;;13.13;;
6344;SDS011;3205;42.666;23.264;2022-10-24T05:13:42;41.93;;;12.57;;
6344;SDS011;3205;42.666;23.264;2022-10-24T05:16:09;34.70;;;12.30;;
6344;SDS011;3205;42.666;23.264;2022-10-24T05:18:36;36.57;;;13.43;;
6344;SDS011;3205;42.666;23.264;2022-10-24T05:21:04;33.13;;;11.37;;
6344;SDS011;3205;42.666;23.264;2022-10-24T05:23:31;24.07;;;11.17;;
6344;SDS011;3205;42.666;23.264;2022-10-24T05:25:58;37.63;;;12.53;;
6344;SDS011;3205;42.666;23.264;2022-10-24T05:28:25;30.30;;;12.90;;
6344;SDS011;3205;42.666;23.264;2022-10-24T05:30:52;30.83;;;12.40;;
6344;SDS011;3205;42.666;23.264;2022-10-24T05:33:18;34.97;;;13.70;;
6344;SDS011;3205;42.666;23.264;2022-10-24T05:35:47;51.53;;;14.97;;
6344;SDS011;3205;42.666;23.264;2022-10-24T05:38:16;37.23;;;13.17;;
6344;SDS011;3205;42.666;23.264;2022-10-24T05:40:43;39.83;;;13.33;;
6344;SDS011;3205;42.666;23.264;2022-10-24T05:43:13;34.27;;;13.57;;
6344;SDS011;3205;42.666;23.264;2022-10-24T05:45:40;24.47;;;11.23;;
6344;SDS011;3205;42.666;23.264;2022-10-24T05:48:07;25.67;;;12.23;;
6344;SDS011;3205;42.666;23.264;2022-10-24T05:50:34;22.07;;;11.10;;
6344;SDS011;3205;42.666;23.264;2022-10-24T05:53:01;24.43;;;11.67;;
6344;SDS011;3205;42.666;23.264;2022-10-24T05:55:29;18.80;;;10.90;;
6344;SDS011;3205;42.666;23.264;2022-10-24T05:57:57;22.67;;;11.33;;
6344;SDS011;3205;42.666;23.264;2022-10-24T06:00:24;20.75;;;11.45;;
6344;SDS011;3205;42.666;23.264;2022-10-24T06:02:51;30.60;;;12.90;;
6344;SDS011;3205;42.666;23.264;2022-10-24T06:05:18;26.25;;;11.90;;
6344;SDS011;3205;42.666;23.264;2022-10-24T06:07:45;24.27;;;12.07;;
6344;SDS011;3205;42.666;23.264;2022-10-24T06:10:12;30.98;;;12.15;;
6344;SDS011;3205;42.666;23.264;2022-10-24T06:12:41;25.63;;;14.25;;
6344;SDS011;3205;42.666;23.264;2022-10-24T06:15:08;29.55;;;15.68;;
6344;SDS011;3205;42.666;23.264;2022-10-24T06:17:35;35.10;;;15.63;;
6344;SDS011;3205;42.666;23.264;2022-10-24T06:20:02;27.45;;;14.88;;
6344;SDS011;3205;42.666;23.264;2022-10-24T06:22:29;26.20;;;13.60;;
6344;SDS011;3205;42.666;23.264;2022-10-24T06:24:56;26.63;;;13.15;;
6344;SDS011;3205;42.666;23.264;2022-10-24T06:27:24;26.58;;;11.75;;
6344;SDS011;3205;42.666;23.264;2022-10-24T06:29:52;28.48;;;13.65;;
6344;SDS011;3205;42.666;23.264;2022-10-24T06:32:19;28.23;;;12.55;;
6344;SDS011;3205;42.666;23.264;2022-10-24T06:34:46;28.92;;;12.38;;
6344;SDS011;3205;42.666;23.264;2022-10-24T06:37:12;26.60;;;12.73;;
6344;SDS011;3205;42.666;23.264;2022-10-24T06:39:39;30.33;;;12.63;;
6344;SDS011;3205;42.666;23.264;2022-10-24T06:42:06;25.08;;;12.95;;
6344;SDS011;3205;42.666;23.264;2022-10-24T06:44:33;17.95;;;11.50;;
6344;SDS011;3205;42.666;23.264;2022-10-24T06:47:04;23.80;;;11.00;;
6344;SDS011;3205;42.666;23.264;2022-10-24T06:49:31;17.02;;;10.02;;
6344;SDS011;3205;42.666;23.264;2022-10-24T06:51:58;24.00;;;10.55;;
6344;SDS011;3205;42.666;23.264;2022-10-24T06:54:24;16.92;;;9.45;;
6344;SDS011;3205;42.666;23.264;2022-10-24T06:56:51;15.15;;;9.23;;
6344;SDS011;3205;42.666;23.264;2022-10-24T06:59:18;18.00;;;8.45;;
6344;SDS011;3205;42.666;23.264;2022-10-24T07:01:45;23.38;;;10.43;;
6344;SDS011;3205;42.666;23.264;2022-10-24T07:04:13;21.77;;;11.32;;
6344;SDS011;3205;42.666;23.264;2022-10-24T07:06:40;23.65;;;11.38;;
6344;SDS011;3205;42.666;23.264;2022-10-24T07:09:07;24.05;;;13.23;;
6344;SDS011;3205;42.666;23.264;2022-10-24T07:11:36;25.30;;;11.35;;
6344;SDS011;3205;42.666;23.264;2022-10-24T07:14:03;25.17;;;13.10;;
6344;SDS011;3205;42.666;23.264;2022-10-24T07:16:30;23.27;;;12.32;;
6344;SDS011;3205;42.666;23.264;2022-10-24T07:18:57;23.85;;;11.93;;
6344;SDS011;3205;42.666;23.264;2022-10-24T07:21:26;18.98;;;11.75;;
6344;SDS011;3205;42.666;23.264;2022-10-24T07:23:55;14.02;;;9.43;;
6344;SDS011;3205;42.666;23.264;2022-10-24T07:26:23;13.70;;;10.43;;
6344;SDS011;3205;42.666;23.264;2022-10-24T07:28:52;17.80;;;10.50;;
6344;SDS011;3205;42.666;23.264;2022-10-24T07:31:23;13.95;;;7.90;;
6344;SDS011;3205;42.666;23.264;2022-10-24T07:33:51;18.13;;;10.27;;
6344;SDS011;3205;42.666;23.264;2022-10-24T07:36:19;16.35;;;9.95;;
6344;SDS011;3205;42.666;23.264;2022-10-24T07:38:49;15.13;;;8.63;;
6344;SDS011;3205;42.666;23.264;2022-10-24T07:41:17;15.38;;;9.10;;
6344;SDS011;3205;42.666;23.264;2022-10-24T07:43:44;19.55;;;10.52;;
6344;SDS011;3205;42.666;23.264;2022-10-24T07:46:12;26.75;;;10.23;;
6344;SDS011;3205;42.666;23.264;2022-10-24T07:48:40;14.32;;;8.35;;
6344;SDS011;3205;42.666;23.264;2022-10-24T07:51:08;15.63;;;8.13;;
6344;SDS011;3205;42.666;23.264;2022-10-24T07:53:36;10.85;;;7.25;;
6344;SDS011;3205;42.666;23.264;2022-10-24T07:56:06;13.35;;;7.72;;
6344;SDS011;3205;42.666;23.264;2022-10-24T07:58:36;13.18;;;8.18;;
6344;SDS011;3205;42.666;23.264;2022-10-24T08:01:03;15.40;;;7.53;;
6344;SDS011;3205;42.666;23.264;2022-10-24T08:03:30;13.18;;;7.90;;
6344;SDS011;3205;42.666;23.264;2022-10-24T08:05:57;12.48;;;7.95;;
6344;SDS011;3205;42.666;23.264;2022-10-24T08:08:24;13.77;;;8.43;;
6344;SDS011;3205;42.666;23.264;2022-10-24T08:10:51;11.32;;;8.93;;
6344;SDS011;3205;42.666;23.264;2022-10-24T08:13:19;16.08;;;10.18;;
6344;SDS011;3205;42.666;23.264;2022-10-24T08:15:46;16.40;;;10.55;;
6344;SDS011;3205;42.666;23.264;2022-10-24T08:18:13;24.27;;;11.77;;
6344;SDS011;3205;42.666;23.264;2022-10-24T08:20:40;21.65;;;11.80;;
6344;SDS011;3205;42.666;23.264;2022-10-24T08:23:06;25.15;;;11.13;;
6344;SDS011;3205;42.666;23.264;2022-10-24T08:25:33;25.48;;;11.60;;
6344;SDS011;3205;42.666;23.264;2022-10-24T08:28:00;17.27;;;10.13;;
6344;SDS011;3205;42.666;23.264;2022-10-24T08:30:28;17.85;;;8.98;;
6344;SDS011;3205;42.666;23.264;2022-10-24T08:32:55;15.43;;;9.35;;
6344;SDS011;3205;42.666;23.264;2022-10-24T08:35:22;15.18;;;8.57;;
6344;SDS011;3205;42.666;23.264;2022-10-24T08:37:49;13.05;;;9.95;;
6344;SDS011;3205;42.666;23.264;2022-10-24T08:40:34;21.85;;;9.48;;
6344;SDS011;3205;42.666;23.264;2022-10-24T08:43:01;14.23;;;10.27;;
6344;SDS011;3205;42.666;23.264;2022-10-24T08:45:32;19.05;;;10.52;;
6344;SDS011;3205;42.666;23.264;2022-10-24T08:48:03;16.13;;;10.13;;
6344;SDS011;3205;42.666;23.264;2022-10-24T08:50:33;18.92;;;10.60;;
6344;SDS011;3205;42.666;23.264;2022-10-24T08:53:01;20.40;;;10.13;;
6344;SDS011;3205;42.666;23.264;2022-10-24T08:55:33;22.13;;;8.73;;
6344;SDS011;3205;42.666;23.264;2022-10-24T08:58:04;20.95;;;8.98;;
6344;SDS011;3205;42.666;23.264;2022-10-24T09:00:36;19.02;;;9.55;;
6344;SDS011;3205;42.666;23.264;2022-10-24T09:03:08;17.35;;;8.32;;
6344;SDS011;3205;42.666;23.264;2022-10-24T09:05:44;27.90;;;9.55;;
6344;SDS011;3205;42.666;23.264;2022-10-24T09:08:17;33.25;;;10.60;;
6344;SDS011;3205;42.666;23.264;2022-10-24T09:10:53;26.08;;;12.10;;
6344;SDS011;3205;42.666;23.264;2022-10-24T09:13:25;30.08;;;10.88;;
6344;SDS011;3205;42.666;23.264;2022-10-24T09:15:54;22.92;;;12.15;;
6344;SDS011;3205;42.666;23.264;2022-10-24T09:18:23;21.23;;;11.85;;
6344;SDS011;3205;42.666;23.264;2022-10-24T09:20:53;25.20;;;10.80;;
6344;SDS011;3205;42.666;23.264;2022-10-24T09:23:21;24.67;;;10.82;;
6344;SDS011;3205;42.666;23.264;2022-10-24T09:25:49;28.02;;;15.90;;
6344;SDS011;3205;42.666;23.264;2022-10-24T09:28:20;27.52;;;12.88;;
6344;SDS011;3205;42.666;23.264;2022-10-24T09:30:48;24.77;;;12.00;;
6344;SDS011;3205;42.666;23.264;2022-10-24T09:33:20;19.50;;;13.02;;
6344;SDS011;3205;42.666;23.264;2022-10-24T09:35:51;21.90;;;12.13;;
6344;SDS011;3205;42.666;23.264;2022-10-24T09:38:26;31.60;;;13.55;;
6344;SDS011;3205;42.666;23.264;2022-10-24T09:40:56;27.77;;;13.10;;
6344;SDS011;3205;42.666;23.264;2022-10-24T09:43:29;28.80;;;14.13;;
6344;SDS011;3205;42.666;23.264;2022-10-24T09:46:00;29.15;;;14.90;;
6344;SDS011;3205;42.666;23.264;2022-10-24T09:48:32;24.25;;;13.82;;
6344;SDS011;3205;42.666;23.264;2022-10-24T09:51:06;26.77;;;13.40;;
6344;SDS011;3205;42.666;23.264;2022-10-24T09:53:34;20.90;;;13.50;;
6344;SDS011;3205;42.666;23.264;2022-10-24T09:56:06;33.70;;;13.32;;
6344;SDS011;3205;42.666;23.264;2022-10-24T09:58:35;29.40;;;13.65;;
6344;SDS011;3205;42.666;23.264;2022-10-24T10:01:03;33.33;;;13.55;;
6344;SDS011;3205;42.666;23.264;2022-10-24T10:03:33;25.15;;;13.18;;
6344;SDS011;3205;42.666;23.264;2022-10-24T10:06:01;24.42;;;12.48;;
6344;SDS011;3205;42.666;23.264;2022-10-24T10:08:34;35.90;;;14.85;;
6344;SDS011;3205;42.666;23.264;2022-10-24T10:11:03;23.63;;;12.85;;
6344;SDS011;3205;42.666;23.264;2022-10-24T10:13:33;24.88;;;13.18;;
6344;SDS011;3205;42.666;23.264;2022-10-24T10:16:05;22.75;;;11.85;;
6344;SDS011;3205;42.666;23.264;2022-10-24T10:18:40;26.63;;;12.30;;
6344;SDS011;3205;42.666;23.264;2022-10-24T10:21:11;29.45;;;13.75;;
6344;SDS011;3205;42.666;23.264;2022-10-24T10:23:41;26.20;;;12.90;;
6344;SDS011;3205;42.666;23.264;2022-10-24T10:26:21;26.13;;;12.73;;
6344;SDS011;3205;42.666;23.264;2022-10-24T10:28:55;22.50;;;11.85;;
6344;SDS011;3205;42.666;23.264;2022-10-24T10:31:27;33.80;;;13.15;;
6344;SDS011;3205;42.666;23.264;2022-10-24T10:37:04;25.33;;;12.82;;
6344;SDS011;3205;42.666;23.264;2022-10-24T10:39:47;27.35;;;11.95;;
6344;SDS011;3205;42.666;23.264;2022-10-24T10:42:29;26.13;;;11.43;;
6344;SDS011;3205;42.666;23.264;2022-10-24T10:45:05;24.80;;;11.88;;
6344;SDS011;3205;42.666;23.264;2022-10-24T10:47:42;28.38;;;11.80;;
6344;SDS011;3205;42.666;23.264;2022-10-24T10:50:20;20.80;;;11.70;;
6344;SDS011;3205;42.666;23.264;2022-10-24T10:52:57;21.98;;;10.40;;
6344;SDS011;3205;42.666;23.264;2022-10-24T10:55:38;23.85;;;11.45;;
6344;SDS011;3205;42.666;23.264;2022-10-24T10:58:19;26.90;;;11.15;;
6344;SDS011;3205;42.666;23.264;2022-10-24T11:00:56;22.65;;;11.40;;
6344;SDS011;3205;42.666;23.264;2022-10-24T11:03:33;21.70;;;11.10;;
6344;SDS011;3205;42.666;23.264;2022-10-24T11:06:16;25.23;;;11.07;;
6344;SDS011;3205;42.666;23.264;2022-10-24T11:09:06;25.48;;;11.07;;
6344;SDS011;3205;42.666;23.264;2022-10-24T11:11:44;24.08;;;9.68;;
6344;SDS011;3205;42.666;23.264;2022-10-24T11:14:16;26.38;;;11.55;;
6344;SDS011;3205;42.666;23.264;2022-10-24T11:16:54;29.42;;;11.50;;
6344;SDS011;3205;42.666;23.264;2022-10-24T11:19:25;21.52;;;10.02;;
6344;SDS011;3205;42.666;23.264;2022-10-24T11:21:57;18.65;;;9.10;;
6344;SDS011;3205;42.666;23.264;2022-10-24T11:24:29;26.88;;;9.23;;
6344;SDS011;3205;42.666;23.264;2022-10-24T11:27:07;23.15;;;9.80;;
6344;SDS011;3205;42.666;23.264;2022-10-24T11:29:40;21.92;;;10.27;;
6344;SDS011;3205;42.666;23.264;2022-10-24T11:32:15;26.80;;;9.18;;
6344;SDS011;3205;42.666;23.264;2022-10-24T11:34:53;21.80;;;9.60;;
6344;SDS011;3205;42.666;23.264;2022-10-24T11:37:27;20.98;;;9.18;;
6344;SDS011;3205;42.666;23.264;2022-10-24T11:39:58;28.58;;;10.00;;
6344;SDS011;3205;42.666;23.264;2022-10-24T11:42:29;19.13;;;9.38;;
6344;SDS011;3205;42.666;23.264;2022-10-24T11:45:02;23.48;;;9.32;;
6344;SDS011;3205;42.666;23.264;2022-10-24T11:47:42;22.17;;;9.23;;
6344;SDS011;3205;42.666;23.264;2022-10-24T11:50:17;19.35;;;9.02;;
6344;SDS011;3205;42.666;23.264;2022-10-24T11:52:54;26.90;;;9.85;;
6344;SDS011;3205;42.666;23.264;2022-10-24T11:55:28;24.17;;;8.60;;
6344;SDS011;3205;42.666;23.264;2022-10-24T11:58:02;24.15;;;8.77;;
6344;SDS011;3205;42.666;23.264;2022-10-24T12:00:35;24.50;;;8.82;;
6344;SDS011;3205;42.666;23.264;2022-10-24T12:03:32;28.95;;;9.25;;
6344;SDS011;3205;42.666;23.264;2022-10-24T12:06:18;22.27;;;9.00;;
6344;SDS011;3205;42.666;23.264;2022-10-24T12:09:02;22.98;;;8.75;;
6344;SDS011;3205;42.666;23.264;2022-10-24T12:11:58;17.92;;;8.65;;
6344;SDS011;3205;42.666;23.264;2022-10-24T12:14:48;19.58;;;8.38;;
6344;SDS011;3205;42.666;23.264;2022-10-24T12:17:40;25.80;;;7.80;;
6344;SDS011;3205;42.666;23.264;2022-10-24T12:20:18;30.90;;;9.38;;
6344;SDS011;3205;42.666;23.264;2022-10-24T12:22:47;20.63;;;8.10;;
6344;SDS011;3205;42.666;23.264;2022-10-24T12:25:21;24.92;;;9.07;;
6344;SDS011;3205;42.666;23.264;2022-10-24T12:27:55;28.33;;;8.38;;
6344;SDS011;3205;42.666;23.264;2022-10-24T12:30:23;27.80;;;8.45;;
6344;SDS011;3205;42.666;23.264;2022-10-24T12:32:52;16.52;;;7.95;;
6344;SDS011;3205;42.666;23.264;2022-10-24T12:35:45;19.20;;;8.75;;
6344;SDS011;3205;42.666;23.264;2022-10-24T12:38:17;21.33;;;7.97;;
6344;SDS011;3205;42.666;23.264;2022-10-24T12:41:03;23.45;;;8.27;;
6344;SDS011;3205;42.666;23.264;2022-10-24T12:43:33;15.70;;;7.55;;
6344;SDS011;3205;42.666;23.264;2022-10-24T12:49:24;20.75;;;8.02;;
6344;SDS011;3205;42.666;23.264;2022-10-24T12:51:53;21.08;;;7.53;;
6344;SDS011;3205;42.666;23.264;2022-10-24T12:54:40;21.83;;;8.07;;
6344;SDS011;3205;42.666;23.264;2022-10-24T12:57:19;23.13;;;8.23;;
6344;SDS011;3205;42.666;23.264;2022-10-24T12:59:49;26.20;;;8.18;;
6344;SDS011;3205;42.666;23.264;2022-10-24T13:02:25;28.10;;;9.10;;
6344;SDS011;3205;42.666;23.264;2022-10-24T13:05:09;20.13;;;8.27;;
6344;SDS011;3205;42.666;23.264;2022-10-24T13:07:58;29.45;;;9.30;;
6344;SDS011;3205;42.666;23.264;2022-10-24T13:10:35;21.20;;;7.82;;
6344;SDS011;3205;42.666;23.264;2022-10-24T13:16:14;30.25;;;8.45;;
6344;SDS011;3205;42.666;23.264;2022-10-24T13:18:50;24.65;;;9.40;;
6344;SDS011;3205;42.666;23.264;2022-10-24T13:21:26;26.77;;;9.25;;
6344;SDS011;3205;42.666;23.264;2022-10-24T13:24:08;22.73;;;7.50;;
6344;SDS011;3205;42.666;23.264;2022-10-24T13:26:38;31.27;;;8.18;;
6344;SDS011;3205;42.666;23.264;2022-10-24T13:29:11;24.80;;;8.63;;
6344;SDS011;3205;42.666;23.264;2022-10-24T13:31:45;29.00;;;9.25;;
6344;SDS011;3205;42.666;23.264;2022-10-24T13:34:26;26.90;;;8.85;;
6344;SDS011;3205;42.666;23.264;2022-10-24T13:36:57;21.27;;;8.90;;
6344;SDS011;3205;42.666;23.264;2022-10-24T13:39:28;28.40;;;8.63;;
6344;SDS011;3205;42.666;23.264;2022-10-24T13:41:59;20.98;;;7.88;;
6344;SDS011;3205;42.666;23.264;2022-10-24T13:44:33;21.75;;;8.18;;
6344;SDS011;3205;42.666;23.264;2022-10-24T13:47:12;18.45;;;7.75;;
6344;SDS011;3205;42.666;23.264;2022-10-24T13:49:47;31.05;;;8.23;;
6344;SDS011;3205;42.666;23.264;2022-10-24T13:52:19;33.40;;;8.07;;
6344;SDS011;3205;42.666;23.264;2022-10-24T13:54:49;23.88;;;8.45;;
6344;SDS011;3205;42.666;23.264;2022-10-24T13:57:22;15.52;;;7.82;;
6344;SDS011;3205;42.666;23.264;2022-10-24T13:59:56;36.75;;;9.05;;
6344;SDS011;3205;42.666;23.264;2022-10-24T14:02:25;25.00;;;7.28;;
6344;SDS011;3205;42.666;23.264;2022-10-24T14:04:56;25.50;;;7.65;;
6344;SDS011;3205;42.666;23.264;2022-10-24T14:07:24;26.13;;;8.45;;
6344;SDS011;3205;42.666;23.264;2022-10-24T14:09:54;23.17;;;9.00;;
6344;SDS011;3205;42.666;23.264;2022-10-24T14:12:23;32.42;;;8.00;;
6344;SDS011;3205;42.666;23.264;2022-10-24T14:14:53;28.35;;;8.68;;
6344;SDS011;3205;42.666;23.264;2022-10-24T14:17:23;30.73;;;8.98;;
6344;SDS011;3205;42.666;23.264;2022-10-24T14:19:54;28.17;;;9.73;;
6344;SDS011;3205;42.666;23.264;2022-10-24T14:22:23;35.70;;;9.13;;
6344;SDS011;3205;42.666;23.264;2022-10-24T14:24:52;30.65;;;9.70;;
6344;SDS011;3205;42.666;23.264;2022-10-24T14:27:19;33.20;;;9.45;;
6344;SDS011;3205;42.666;23.264;2022-10-24T14:29:50;37.28;;;11.60;;
6344;SDS011;3205;42.666;23.264;2022-10-24T14:32:29;42.70;;;11.23;;
6344;SDS011;3205;42.666;23.264;2022-10-24T14:34:57;33.05;;;9.85;;
6344;SDS011;3205;42.666;23.264;2022-10-24T14:37:26;26.42;;;11.05;;
6344;SDS011;3205;42.666;23.264;2022-10-24T14:39:56;66.00;;;13.77;;
6344;SDS011;3205;42.666;23.264;2022-10-24T14:42:24;38.60;;;11.52;;
6344;SDS011;3205;42.666;23.264;2022-10-24T14:44:51;46.03;;;11.02;;
6344;SDS011;3205;42.666;23.264;2022-10-24T14:47:25;57.58;;;12.40;;
6344;SDS011;3205;42.666;23.264;2022-10-24T14:49:54;54.90;;;15.55;;
6344;SDS011;3205;42.666;23.264;2022-10-24T14:52:23;58.45;;;16.90;;
6344;SDS011;3205;42.666;23.264;2022-10-24T14:54:55;72.18;;;18.05;;
6344;SDS011;3205;42.666;23.264;2022-10-24T14:57:26;62.25;;;17.65;;
6344;SDS011;3205;42.666;23.264;2022-10-24T14:59:55;62.05;;;17.95;;
6344;SDS011;3205;42.666;23.264;2022-10-24T15:02:26;60.40;;;19.77;;
6344;SDS011;3205;42.666;23.264;2022-10-24T15:05:12;61.42;;;18.38;;
6344;SDS011;3205;42.666;23.264;2022-10-24T15:07:54;47.03;;;14.98;;
6344;SDS011;3205;42.666;23.264;2022-10-24T15:10:31;50.65;;;13.98;;
6344;SDS011;3205;42.666;23.264;2022-10-24T15:13:01;56.78;;;13.68;;
6344;SDS011;3205;42.666;23.264;2022-10-24T15:15:45;52.45;;;13.35;;